createdAt,value
2023-04-30T00:01:43.067Z,5.10
2023-04-30T00:04:11.065Z,5.47
2023-04-30T00:06:38.972Z,5.27
2023-04-30T00:09:06.660Z,5.13
2023-04-30T00:11:34.436Z,5.43
2023-04-30T00:14:02.339Z,6.30
2023-04-30T00:16:30.194Z,5.00
2023-04-30T00:18:58.018Z,5.97
2023-04-30T00:21:26.047Z,5.67
2023-04-30T00:23:54.262Z,6.27
2023-04-30T00:26:22.533Z,5.00
2023-04-30T00:28:50.212Z,6.07
2023-04-30T00:31:17.973Z,5.10
2023-04-30T00:33:45.760Z,5.17
2023-04-30T00:36:13.505Z,5.60
2023-04-30T00:38:41.429Z,5.80
2023-04-30T00:41:09.676Z,5.23
2023-04-30T00:43:37.421Z,6.50
2023-04-30T00:46:06.035Z,5.93
2023-04-30T00:48:34.162Z,6.00
2023-04-30T00:51:03.622Z,6.63
2023-04-30T00:53:32.061Z,6.43
2023-04-30T00:56:00.510Z,6.67
2023-04-30T00:58:28.483Z,6.47
2023-04-30T01:00:56.417Z,6.77
2023-04-30T01:03:24.417Z,5.47
2023-04-30T01:05:53.518Z,7.20
2023-04-30T01:08:21.595Z,6.50
2023-04-30T01:11:09.771Z,6.73
2023-04-30T01:13:47.982Z,5.67
2023-04-30T01:16:20.643Z,5.33
2023-04-30T01:18:52.207Z,6.90
2023-04-30T01:21:20.223Z,6.07
2023-04-30T01:24:17.599Z,5.83
2023-04-30T01:27:05.521Z,5.73
2023-04-30T01:29:34.387Z,5.60
2023-04-30T01:32:03.030Z,6.23
2023-04-30T01:34:30.812Z,5.87
2023-04-30T01:37:11.546Z,6.33
2023-04-30T01:39:59.339Z,6.00
2023-04-30T01:42:34.613Z,5.67
2023-04-30T01:48:06.599Z,6.67
2023-04-30T01:50:43.661Z,5.63
2023-04-30T01:53:18.095Z,5.20
2023-04-30T01:55:51.245Z,6.90
2023-04-30T01:58:22.415Z,6.30
2023-04-30T02:00:50.155Z,6.57
2023-04-30T02:03:18.019Z,6.07
2023-04-30T02:05:46.728Z,6.10
2023-04-30T02:08:14.612Z,5.87
2023-04-30T02:10:42.530Z,6.30
2023-04-30T02:13:10.385Z,6.10
2023-04-30T02:15:38.195Z,6.07
2023-04-30T02:18:06.350Z,6.13
2023-04-30T02:20:34.241Z,5.97
2023-04-30T02:23:01.946Z,6.23
2023-04-30T02:25:30.157Z,5.90
2023-04-30T02:27:57.868Z,6.40
2023-04-30T02:30:25.566Z,5.57
2023-04-30T02:32:53.319Z,6.47
2023-04-30T02:35:21.128Z,5.70
2023-04-30T02:37:48.952Z,6.47
2023-04-30T02:40:17.093Z,6.00
2023-04-30T02:42:44.821Z,5.60
2023-04-30T02:45:12.673Z,5.53
2023-04-30T02:47:40.365Z,5.57
2023-04-30T02:50:10.319Z,5.87
2023-04-30T02:52:38.049Z,5.43
2023-04-30T02:55:08.279Z,6.47
2023-04-30T02:57:35.996Z,6.20
2023-04-30T03:00:05.636Z,6.53
2023-04-30T03:02:33.951Z,6.30
2023-04-30T03:05:03.422Z,6.93
2023-04-30T03:07:31.274Z,6.37
2023-04-30T03:09:59.110Z,6.73
2023-04-30T03:12:26.843Z,6.83
2023-04-30T03:14:54.577Z,6.80
2023-04-30T03:20:13.271Z,6.30
2023-04-30T03:22:41.457Z,6.10
2023-04-30T03:25:10.238Z,6.20
2023-04-30T03:27:38.107Z,6.10
2023-04-30T03:30:08.355Z,6.60
2023-04-30T03:32:36.183Z,6.30
2023-04-30T03:35:04.813Z,7.53
2023-04-30T03:37:32.832Z,5.93
2023-04-30T03:40:00.635Z,7.27
2023-04-30T03:42:28.336Z,7.43
2023-04-30T03:44:56.060Z,7.43
2023-04-30T03:47:24.039Z,7.20
2023-04-30T03:49:54.777Z,7.10
2023-04-30T03:52:22.892Z,6.30
2023-04-30T03:54:50.639Z,7.00
2023-04-30T03:57:18.719Z,6.70
2023-04-30T03:59:46.571Z,6.50
2023-04-30T04:02:14.292Z,6.70
2023-04-30T04:04:42.604Z,6.83
2023-04-30T04:07:10.714Z,6.50
2023-04-30T04:09:38.482Z,6.20
2023-04-30T04:12:07.032Z,6.80
2023-04-30T04:14:34.747Z,6.80
2023-04-30T04:17:04.917Z,7.13
2023-04-30T04:19:32.674Z,7.10
2023-04-30T04:22:00.601Z,7.20
2023-04-30T04:24:28.774Z,6.63
2023-04-30T04:26:57.488Z,7.57
2023-04-30T04:29:25.252Z,6.67
2023-04-30T04:31:54.710Z,7.57
2023-04-30T04:34:22.916Z,6.80
2023-04-30T04:36:50.684Z,7.03
2023-04-30T04:39:18.393Z,6.70
2023-04-30T04:41:46.162Z,6.83
2023-04-30T04:44:14.073Z,6.20
2023-04-30T04:46:43.744Z,6.23
2023-04-30T04:49:12.554Z,6.20
2023-04-30T04:51:40.722Z,6.43
2023-04-30T04:54:08.492Z,5.70
2023-04-30T04:56:36.194Z,5.73
2023-04-30T04:59:03.925Z,6.83
2023-04-30T05:01:31.737Z,5.67
2023-04-30T05:03:59.641Z,7.10
2023-04-30T05:06:28.167Z,6.17
2023-04-30T05:08:56.658Z,6.97
2023-04-30T05:11:24.376Z,5.70
2023-04-30T05:13:52.071Z,6.07
2023-04-30T05:16:19.810Z,6.03
2023-04-30T05:18:47.732Z,5.53
2023-04-30T05:21:15.490Z,5.87
2023-04-30T05:23:43.660Z,5.33
2023-04-30T05:26:11.520Z,4.93
2023-04-30T05:28:39.410Z,5.27
2023-04-30T05:31:07.389Z,5.23
2023-04-30T05:33:36.357Z,5.70
2023-04-30T05:36:05.720Z,6.60
2023-04-30T05:38:33.642Z,5.50
2023-04-30T05:41:01.614Z,6.00
2023-04-30T05:43:29.457Z,4.97
2023-04-30T05:45:57.207Z,5.27
2023-04-30T05:48:28.001Z,5.60
2023-04-30T05:50:55.668Z,5.13
2023-04-30T05:53:23.490Z,5.10
2023-04-30T05:55:51.440Z,4.80
2023-04-30T05:58:19.219Z,3.77
2023-04-30T06:00:50.155Z,3.93
2023-04-30T06:03:17.984Z,3.80
2023-04-30T06:05:46.424Z,3.80
2023-04-30T06:08:14.409Z,4.30
2023-04-30T06:10:42.740Z,3.73
2023-04-30T06:13:10.645Z,3.77
2023-04-30T06:15:38.969Z,3.60
2023-04-30T06:18:06.926Z,4.13
2023-04-30T06:20:34.908Z,3.57
2023-04-30T06:23:03.233Z,4.70
2023-04-30T06:25:30.996Z,3.93
2023-04-30T06:27:58.921Z,5.00
2023-04-30T06:30:27.004Z,3.77
2023-04-30T06:32:54.952Z,4.70
2023-04-30T06:35:22.903Z,3.87
2023-04-30T06:37:50.588Z,4.13
2023-04-30T06:40:19.722Z,4.20
2023-04-30T06:42:47.910Z,3.90
2023-04-30T06:45:15.719Z,4.20
2023-04-30T06:47:45.464Z,3.97
2023-04-30T06:50:15.132Z,3.43
2023-04-30T06:52:43.902Z,3.47
2023-04-30T06:55:11.864Z,4.50
2023-04-30T06:57:39.748Z,3.90
2023-04-30T07:00:09.471Z,4.23
2023-04-30T07:02:37.279Z,3.70
2023-04-30T07:05:06.176Z,5.27
2023-04-30T07:07:34.184Z,4.10
2023-04-30T07:10:03.212Z,4.73
2023-04-30T07:12:30.991Z,4.20
2023-04-30T07:14:59.933Z,4.97
2023-04-30T07:17:28.585Z,4.00
2023-04-30T07:19:56.804Z,4.30
2023-04-30T07:22:24.965Z,3.47
2023-04-30T07:24:52.789Z,4.73
2023-04-30T07:27:20.596Z,3.90
2023-04-30T07:29:48.544Z,3.50
2023-04-30T07:32:16.428Z,3.53
2023-04-30T07:34:44.468Z,3.10
2023-04-30T07:37:12.963Z,3.07
2023-04-30T07:39:40.959Z,3.33
2023-04-30T07:42:08.930Z,3.37
2023-04-30T07:44:36.847Z,3.37
2023-04-30T07:47:04.802Z,3.57
2023-04-30T07:49:32.657Z,3.73
2023-04-30T07:52:00.835Z,4.20
2023-04-30T07:54:28.991Z,3.07
2023-04-30T07:56:56.896Z,4.00
2023-04-30T07:59:24.825Z,3.67
2023-04-30T08:01:52.784Z,3.70
2023-04-30T08:04:20.704Z,3.23
2023-04-30T08:06:48.908Z,3.20
2023-04-30T08:09:16.917Z,3.23
2023-04-30T08:11:45.037Z,3.40
2023-04-30T08:14:13.170Z,3.20
2023-04-30T08:16:41.017Z,3.30
2023-04-30T08:19:09.884Z,2.90
2023-04-30T08:21:37.681Z,2.90
2023-04-30T08:24:05.930Z,4.13
2023-04-30T08:26:33.818Z,3.10
2023-04-30T08:29:01.618Z,3.57
2023-04-30T08:31:29.543Z,3.00
2023-04-30T08:33:58.461Z,3.63
2023-04-30T08:36:27.030Z,2.90
2023-04-30T08:38:55.145Z,3.77
2023-04-30T08:41:26.480Z,3.60
2023-04-30T08:43:56.303Z,3.67
2023-04-30T08:46:25.084Z,2.70
2023-04-30T08:48:52.970Z,3.47
2023-04-30T08:51:21.639Z,3.07
2023-04-30T08:53:50.906Z,3.10
2023-04-30T08:56:18.705Z,3.53
2023-04-30T08:58:46.617Z,2.80
2023-04-30T09:01:14.828Z,3.37
2023-04-30T09:03:42.869Z,3.20
2023-04-30T09:06:14.786Z,3.20
2023-04-30T09:08:44.347Z,3.20
2023-04-30T09:11:26.303Z,2.77
2023-04-30T09:13:56.687Z,3.70
2023-04-30T09:16:25.517Z,3.13
2023-04-30T09:18:53.800Z,3.20
2023-04-30T09:21:33.115Z,3.33
2023-04-30T09:24:02.605Z,3.60
2023-04-30T09:26:34.333Z,3.13
2023-04-30T09:29:07.078Z,3.47
2023-04-30T09:31:35.726Z,2.80
2023-04-30T09:34:03.936Z,3.53
2023-04-30T09:36:32.101Z,3.00
2023-04-30T09:39:10.291Z,3.97
2023-04-30T09:41:39.500Z,2.93
2023-04-30T09:44:07.391Z,3.50
2023-04-30T09:46:37.730Z,2.50
2023-04-30T09:49:06.895Z,3.37
2023-04-30T09:51:35.710Z,2.40
2023-04-30T09:54:06.325Z,3.23
2023-04-30T09:56:38.719Z,2.47
2023-04-30T09:59:09.112Z,3.13
2023-04-30T10:01:39.651Z,3.00
2023-04-30T10:04:09.286Z,3.10
2023-04-30T10:06:37.943Z,2.97
2023-04-30T10:09:07.851Z,3.83
2023-04-30T10:11:38.617Z,3.00
2023-04-30T10:14:11.999Z,4.00
2023-04-30T10:16:47.533Z,3.07
2023-04-30T10:19:18.944Z,2.80
2023-04-30T10:21:47.532Z,3.30
2023-04-30T10:24:18.723Z,2.70
2023-04-30T10:26:47.259Z,3.10
2023-04-30T10:29:16.212Z,3.10
2023-04-30T10:31:47.716Z,3.00
2023-04-30T10:34:31.807Z,3.03
2023-04-30T10:37:04.564Z,3.53
2023-04-30T10:39:34.828Z,3.13
2023-04-30T10:42:04.252Z,3.80
2023-04-30T10:44:34.332Z,2.97
2023-04-30T10:47:03.446Z,3.30
2023-04-30T10:49:32.101Z,3.00
2023-04-30T10:52:01.052Z,3.23
2023-04-30T10:54:31.022Z,3.10
2023-04-30T10:57:11.393Z,3.20
2023-04-30T10:59:44.402Z,2.50
2023-04-30T11:02:14.990Z,2.60
2023-04-30T11:07:59.046Z,3.27
2023-04-30T11:10:28.311Z,2.70
2023-04-30T11:12:56.600Z,3.40
2023-04-30T11:15:27.783Z,2.23
2023-04-30T11:17:58.767Z,3.27
2023-04-30T11:20:27.588Z,2.50
2023-04-30T11:23:12.653Z,3.13
2023-04-30T11:25:42.251Z,2.40
2023-04-30T11:28:15.764Z,2.60
2023-04-30T11:30:51.805Z,2.37
2023-04-30T11:33:20.620Z,2.57
2023-04-30T11:35:51.386Z,2.27
2023-04-30T11:38:22.064Z,3.00
2023-04-30T11:40:50.838Z,2.57
2023-04-30T11:43:26.120Z,2.77
2023-04-30T11:46:11.309Z,3.10
2023-04-30T11:48:41.471Z,2.00
2023-04-30T11:51:19.576Z,2.60
2023-04-30T11:53:48.791Z,2.43
2023-04-30T11:56:20.733Z,2.60
2023-04-30T11:58:49.757Z,2.60
2023-04-30T12:01:19.458Z,2.47
2023-04-30T12:03:49.817Z,2.33
2023-04-30T12:06:23.108Z,1.50
2023-04-30T12:08:52.866Z,2.17
2023-04-30T12:11:23.097Z,2.03
2023-04-30T12:13:56.238Z,2.03
2023-04-30T12:16:25.174Z,2.53
2023-04-30T12:18:53.331Z,2.47
2023-04-30T12:21:22.285Z,2.10
2023-04-30T12:23:50.374Z,1.60
2023-04-30T12:26:18.180Z,1.93
2023-04-30T12:28:49.045Z,2.20
2023-04-30T12:31:18.389Z,1.83
2023-04-30T12:33:54.746Z,1.80
2023-04-30T12:36:22.586Z,2.20
2023-04-30T12:39:00.776Z,2.23
2023-04-30T12:41:30.738Z,1.97
2023-04-30T12:44:18.295Z,2.70
2023-04-30T12:46:47.056Z,2.03
2023-04-30T12:49:24.484Z,2.20
2023-04-30T12:51:52.453Z,2.17
2023-04-30T12:54:28.303Z,2.10
2023-04-30T12:57:00.920Z,2.30
2023-04-30T12:59:29.114Z,2.10
2023-04-30T13:02:06.843Z,2.50
2023-04-30T13:04:35.885Z,2.00
2023-04-30T13:07:04.234Z,2.57
2023-04-30T13:09:35.141Z,2.63
2023-04-30T13:12:03.533Z,3.00
2023-04-30T13:14:31.834Z,2.23
2023-04-30T13:19:49.538Z,1.80
2023-04-30T13:22:17.275Z,1.73
2023-04-30T13:24:45.072Z,1.90
2023-04-30T13:27:13.104Z,2.00
2023-04-30T13:29:41.309Z,2.30
2023-04-30T13:32:10.236Z,1.93
2023-04-30T13:34:38.296Z,2.30
2023-04-30T13:37:06.135Z,2.17
2023-04-30T13:39:33.913Z,2.20
2023-04-30T13:42:01.739Z,2.60
2023-04-30T13:44:32.085Z,2.20
2023-04-30T13:46:59.889Z,2.37
2023-04-30T13:49:27.767Z,2.43
2023-04-30T13:51:55.572Z,2.07
2023-04-30T13:54:23.542Z,2.20
2023-04-30T13:56:51.479Z,2.23
2023-04-30T13:59:19.850Z,1.77
2023-04-30T14:01:47.684Z,1.80
2023-04-30T14:04:15.642Z,1.90
2023-04-30T14:06:44.788Z,1.80
2023-04-30T14:09:12.805Z,1.97
2023-04-30T14:11:40.919Z,1.70
2023-04-30T14:14:09.577Z,1.87
2023-04-30T14:16:37.826Z,1.70
2023-04-30T14:19:05.810Z,2.50
2023-04-30T14:21:33.561Z,2.00
2023-04-30T14:24:01.431Z,2.00
2023-04-30T14:26:30.770Z,1.93
2023-04-30T14:28:58.804Z,1.80
2023-04-30T14:31:26.803Z,1.60
2023-04-30T14:33:54.690Z,1.93
2023-04-30T14:36:22.482Z,1.70
2023-04-30T14:38:50.324Z,1.80
2023-04-30T14:41:18.227Z,1.87
2023-04-30T14:43:46.141Z,1.83
2023-04-30T14:46:14.331Z,1.57
2023-04-30T14:48:42.180Z,1.70
2023-04-30T14:51:10.454Z,2.03
2023-04-30T14:53:38.428Z,1.80
2023-04-30T14:56:07.725Z,2.00
2023-04-30T14:58:35.690Z,1.90
2023-04-30T15:01:03.828Z,1.90
2023-04-30T15:03:31.711Z,1.97
2023-04-30T15:06:00.162Z,2.07
2023-04-30T15:08:28.116Z,1.90
2023-04-30T15:10:56.787Z,1.83
2023-04-30T15:13:24.743Z,2.07
2023-04-30T15:15:52.886Z,1.80
2023-04-30T15:18:20.897Z,1.80
2023-04-30T15:20:49.001Z,2.23
2023-04-30T15:23:17.033Z,2.17
2023-04-30T15:25:44.911Z,1.93
2023-04-30T15:30:57.752Z,1.93
2023-04-30T15:33:28.084Z,1.90
2023-04-30T15:35:56.032Z,1.73
2023-04-30T15:38:23.902Z,1.80
2023-04-30T15:40:51.968Z,1.93
2023-04-30T15:43:21.556Z,1.87
2023-04-30T15:45:49.591Z,1.90
2023-04-30T15:48:17.629Z,1.70
2023-04-30T15:50:45.352Z,1.80
2023-04-30T15:53:13.176Z,1.80
2023-04-30T15:55:41.078Z,1.70
2023-04-30T15:58:09.110Z,2.03
2023-04-30T16:00:36.952Z,1.80
2023-04-30T16:03:04.977Z,1.87
2023-04-30T16:05:37.954Z,1.70
2023-04-30T16:08:06.823Z,1.83
2023-04-30T16:10:34.621Z,1.70
2023-04-30T16:13:02.699Z,2.23
2023-04-30T16:15:31.341Z,1.67
2023-04-30T16:17:59.641Z,1.80
2023-04-30T16:20:28.130Z,1.80
2023-04-30T16:22:56.890Z,1.80
2023-04-30T16:25:24.705Z,2.00
2023-04-30T16:27:53.470Z,1.70
2023-04-30T16:30:21.514Z,1.73
2023-04-30T16:32:49.861Z,1.70
2023-04-30T16:35:17.870Z,1.60
2023-04-30T16:37:45.762Z,1.90
2023-04-30T16:40:13.839Z,2.13
2023-04-30T16:42:43.171Z,1.90
2023-04-30T16:45:11.454Z,2.23
2023-04-30T16:47:39.731Z,1.90
2023-04-30T16:50:09.499Z,2.10
2023-04-30T16:52:37.307Z,1.60
2023-04-30T16:55:07.355Z,2.20
2023-04-30T16:57:35.968Z,1.77
2023-04-30T17:00:05.843Z,1.87
2023-04-30T17:02:33.844Z,1.83
2023-04-30T17:05:01.926Z,2.27
2023-04-30T17:07:29.903Z,1.80
2023-04-30T17:09:57.860Z,2.17
2023-04-30T17:12:26.784Z,1.80
2023-04-30T17:14:54.525Z,2.00
2023-04-30T17:17:22.817Z,1.97
2023-04-30T17:19:50.580Z,1.93
2023-04-30T17:22:19.417Z,2.10
2023-04-30T17:24:47.381Z,2.30
2023-04-30T17:27:15.552Z,2.10
2023-04-30T17:29:43.337Z,1.80
2023-04-30T17:32:11.254Z,2.00
2023-04-30T17:34:39.089Z,1.77
2023-04-30T17:37:08.088Z,2.00
2023-04-30T17:39:36.048Z,1.80
2023-04-30T17:42:04.074Z,2.40
2023-04-30T17:44:33.054Z,2.13
2023-04-30T17:47:01.785Z,1.97
2023-04-30T17:49:29.569Z,2.10
2023-04-30T17:51:58.505Z,2.03
2023-04-30T17:54:26.681Z,2.10
2023-04-30T17:56:54.522Z,2.00
2023-04-30T17:59:24.284Z,4.90
2023-04-30T18:01:53.453Z,7.77
2023-04-30T18:04:21.981Z,3.00
2023-04-30T18:06:50.359Z,3.10
2023-04-30T18:09:18.692Z,3.50
2023-04-30T18:11:46.525Z,3.03
2023-04-30T18:14:14.419Z,2.80
2023-04-30T18:16:42.381Z,2.43
2023-04-30T18:19:10.468Z,2.83
2023-04-30T18:21:40.405Z,2.70
2023-04-30T18:24:08.446Z,2.83
2023-04-30T18:26:37.121Z,2.60
2023-04-30T18:29:05.701Z,3.73
2023-04-30T18:31:36.034Z,3.40
2023-04-30T18:34:04.143Z,2.73
2023-04-30T18:36:32.150Z,4.30
2023-04-30T18:39:00.074Z,5.63
2023-04-30T18:41:28.296Z,4.50
2023-04-30T18:46:44.375Z,3.50
2023-04-30T18:51:57.270Z,5.37
2023-04-30T18:54:25.250Z,3.03
2023-04-30T18:56:53.276Z,3.40
2023-04-30T18:59:22.138Z,3.67
2023-04-30T19:01:50.309Z,6.17
2023-04-30T19:04:18.781Z,2.87
2023-04-30T19:06:49.169Z,4.20
2023-04-30T19:09:17.174Z,4.40
2023-04-30T19:11:45.058Z,2.87
2023-04-30T19:14:12.830Z,4.37
2023-04-30T19:16:41.525Z,4.73
2023-04-30T19:19:09.610Z,4.10
2023-04-30T19:21:37.602Z,3.03
2023-04-30T19:24:05.895Z,4.50
2023-04-30T19:26:36.225Z,2.80
2023-04-30T19:29:04.059Z,4.83
2023-04-30T19:31:33.758Z,2.67
2023-04-30T19:34:01.677Z,4.67
2023-04-30T19:36:29.493Z,2.60
2023-04-30T19:38:58.036Z,3.53
2023-04-30T19:41:26.707Z,3.40
2023-04-30T19:43:55.342Z,3.67
2023-04-30T19:46:23.552Z,2.17
2023-04-30T19:48:51.636Z,2.87
2023-04-30T19:51:19.631Z,3.17
2023-04-30T19:56:35.791Z,3.67
2023-04-30T19:59:04.132Z,3.67
2023-04-30T20:01:32.085Z,3.33
2023-04-30T20:04:00.208Z,3.53
2023-04-30T20:06:28.328Z,2.40
2023-04-30T20:08:58.614Z,2.60
2023-04-30T20:11:27.215Z,2.43
2023-04-30T20:13:55.959Z,2.23
2023-04-30T20:16:23.933Z,3.10
2023-04-30T20:18:52.579Z,2.93
2023-04-30T20:21:20.902Z,2.80
2023-04-30T20:23:48.489Z,2.47
2023-04-30T20:26:16.438Z,4.13
2023-04-30T20:28:44.464Z,2.60
2023-04-30T20:31:12.641Z,5.33
2023-04-30T20:33:41.616Z,3.20
2023-04-30T20:38:55.857Z,3.53
2023-04-30T20:41:26.466Z,4.40
2023-04-30T20:43:56.340Z,3.80
2023-04-30T20:46:24.484Z,3.63
2023-04-30T20:48:55.788Z,3.07
2023-04-30T20:51:23.703Z,3.10
2023-04-30T20:53:51.756Z,3.53
2023-04-30T20:56:20.611Z,3.53
2023-04-30T20:58:49.061Z,3.93
2023-04-30T21:01:17.191Z,3.93
2023-04-30T21:03:44.869Z,2.70
2023-04-30T21:06:12.660Z,4.30
2023-04-30T21:08:40.692Z,4.63
2023-04-30T21:11:08.529Z,5.03
2023-04-30T21:13:36.573Z,2.30
2023-04-30T21:16:04.489Z,5.43
2023-04-30T21:21:20.289Z,4.10
2023-04-30T21:23:48.471Z,3.13
2023-04-30T21:26:16.908Z,4.17
2023-04-30T21:28:45.144Z,3.23
2023-04-30T21:31:13.118Z,4.87
2023-04-30T21:36:29.505Z,3.63
2023-04-30T21:38:58.679Z,4.03
2023-04-30T21:41:27.371Z,5.20
2023-04-30T21:43:55.358Z,4.40
2023-04-30T21:46:23.923Z,4.30
2023-04-30T21:48:52.238Z,4.30
2023-04-30T21:51:20.178Z,3.63
2023-04-30T21:53:48.377Z,4.33
2023-04-30T21:56:16.153Z,4.47
2023-04-30T21:58:43.947Z,4.90
2023-04-30T22:01:12.739Z,5.20
2023-04-30T22:03:42.177Z,3.90
2023-04-30T22:06:10.159Z,5.83
2023-04-30T22:08:38.318Z,3.77
2023-04-30T22:11:06.233Z,5.17
2023-04-30T22:13:34.269Z,3.57
2023-04-30T22:16:02.529Z,4.80
2023-04-30T22:18:30.397Z,3.60
2023-04-30T22:20:59.822Z,5.43
2023-04-30T22:23:28.085Z,4.40
2023-04-30T22:25:55.965Z,3.17
2023-04-30T22:28:23.884Z,3.53
2023-04-30T22:30:58.625Z,4.77
2023-04-30T22:33:26.618Z,4.80
2023-04-30T22:35:55.671Z,4.60
2023-04-30T22:38:23.556Z,4.80
2023-04-30T22:40:51.214Z,4.03
2023-04-30T22:43:19.932Z,3.77
2023-04-30T22:45:47.959Z,5.23
2023-04-30T22:48:16.067Z,4.97
2023-04-30T22:53:30.355Z,4.37
2023-04-30T22:55:59.167Z,5.33
2023-04-30T23:01:17.202Z,4.90
2023-04-30T23:03:45.063Z,5.23
2023-04-30T23:06:14.008Z,7.13
2023-04-30T23:08:41.590Z,4.67
2023-04-30T23:11:09.486Z,5.80
2023-04-30T23:13:37.785Z,6.23
2023-04-30T23:16:09.534Z,8.10
2023-04-30T23:18:37.844Z,3.83
2023-04-30T23:21:06.326Z,6.33
2023-04-30T23:23:34.416Z,4.67
2023-04-30T23:26:02.859Z,6.63
2023-04-30T23:28:30.630Z,4.33
2023-04-30T23:30:58.453Z,4.33
2023-04-30T23:33:26.823Z,5.10
2023-04-30T23:35:54.831Z,4.03
2023-04-30T23:38:22.813Z,4.60
2023-04-30T23:40:50.544Z,4.50
2023-04-30T23:43:18.064Z,5.33
2023-04-30T23:45:45.808Z,4.70
2023-04-30T23:48:13.413Z,6.83
2023-04-30T23:50:41.567Z,5.30
2023-04-30T23:53:09.349Z,6.13
2023-04-30T23:55:40.083Z,5.20
2023-04-30T23:58:07.980Z,7.77
